createdAt,value
2023-03-20T00:02:05.567Z,24.53
2023-03-20T00:04:32.638Z,22.07
2023-03-20T00:06:59.367Z,22.13
2023-03-20T00:09:26.671Z,23.80
2023-03-20T00:11:55.543Z,24.07
2023-03-20T00:14:24.843Z,25.00
2023-03-20T00:16:52.226Z,21.20
2023-03-20T00:19:23.182Z,22.07
2023-03-20T00:21:51.121Z,22.30
2023-03-20T00:24:18.401Z,22.47
2023-03-20T00:26:46.918Z,22.87
2023-03-20T00:29:26.119Z,21.10
2023-03-20T00:31:54.041Z,21.87
2023-03-20T00:34:23.700Z,21.70
2023-03-20T00:36:51.728Z,21.23
2023-03-20T00:39:19.124Z,20.80
2023-03-20T00:41:50.324Z,21.60
2023-03-20T00:44:43.251Z,21.40
2023-03-20T00:47:15.982Z,21.10
2023-03-20T00:49:43.208Z,21.60
2023-03-20T00:52:12.501Z,23.73
2023-03-20T00:54:39.167Z,20.90
2023-03-20T00:57:12.692Z,22.63
2023-03-20T00:59:46.172Z,22.37
2023-03-20T01:02:13.029Z,23.63
2023-03-20T01:04:42.261Z,22.37
2023-03-20T01:07:14.003Z,23.10
2023-03-20T01:09:41.669Z,23.67
2023-03-20T01:12:12.183Z,24.20
2023-03-20T01:14:39.007Z,23.97
2023-03-20T01:17:05.982Z,26.20
2023-03-20T01:19:32.726Z,26.30
2023-03-20T01:21:59.382Z,26.80
2023-03-20T01:24:26.198Z,29.10
2023-03-20T01:26:54.657Z,27.47
2023-03-20T01:29:27.536Z,27.40
2023-03-20T01:31:54.376Z,27.20
2023-03-20T01:34:21.658Z,27.37
2023-03-20T01:36:54.648Z,28.60
2023-03-20T01:39:24.302Z,25.17
2023-03-20T01:41:52.992Z,28.40
2023-03-20T01:44:27.209Z,26.90
2023-03-20T01:46:55.366Z,26.77
2023-03-20T01:49:22.119Z,26.90
2023-03-20T01:51:50.461Z,28.23
2023-03-20T01:54:25.473Z,27.63
2023-03-20T01:57:18.104Z,27.07
2023-03-20T01:59:50.298Z,26.83
2023-03-20T02:02:22.078Z,26.27
2023-03-20T02:04:54.105Z,25.70
2023-03-20T02:07:23.099Z,27.87
2023-03-20T02:09:50.932Z,28.80
2023-03-20T02:12:19.053Z,30.73
2023-03-20T02:14:47.508Z,30.93
2023-03-20T02:17:14.736Z,29.03
2023-03-20T02:19:58.333Z,28.17
2023-03-20T02:22:33.880Z,29.97
2023-03-20T02:25:27.906Z,30.20
2023-03-20T02:28:16.283Z,29.10
2023-03-20T02:31:10.969Z,26.50
2023-03-20T02:33:51.095Z,27.33
2023-03-20T02:36:52.101Z,28.47
2023-03-20T02:39:46.882Z,26.93
2023-03-20T02:42:19.754Z,25.37
2023-03-20T02:45:14.869Z,26.90
2023-03-20T02:48:19.452Z,24.00
2023-03-20T02:51:03.816Z,26.50
2023-03-20T02:54:11.752Z,25.47
2023-03-20T02:56:59.625Z,27.33
2023-03-20T02:59:41.679Z,25.90
2023-03-20T03:02:18.674Z,25.33
2023-03-20T03:04:53.099Z,25.67
2023-03-20T03:07:24.397Z,26.47
2023-03-20T03:10:05.380Z,26.70
2023-03-20T03:12:41.103Z,26.77
2023-03-20T03:15:25.162Z,26.87
2023-03-20T03:17:52.436Z,28.73
2023-03-20T03:20:26.775Z,28.13
2023-03-20T03:22:53.474Z,27.93
2023-03-20T03:25:25.109Z,27.47
2023-03-20T03:28:15.765Z,27.33
2023-03-20T03:30:43.467Z,27.50
2023-03-20T03:33:19.759Z,28.50
2023-03-20T03:35:48.010Z,27.90
2023-03-20T03:38:44.782Z,29.70
2023-03-20T03:41:14.572Z,27.30
2023-03-20T03:43:57.826Z,29.60
2023-03-20T03:46:37.721Z,29.40
2023-03-20T03:49:06.797Z,30.30
2023-03-20T03:51:38.665Z,30.40
2023-03-20T03:54:13.223Z,28.43
2023-03-20T03:56:43.142Z,30.17
2023-03-20T03:59:14.953Z,30.77
2023-03-20T04:01:44.452Z,31.43
2023-03-20T04:04:14.918Z,30.00
2023-03-20T04:06:42.358Z,31.23
2023-03-20T04:09:09.648Z,31.53
2023-03-20T04:11:36.676Z,30.43
2023-03-20T04:14:03.592Z,31.80
2023-03-20T04:16:30.939Z,31.47
2023-03-20T04:18:57.926Z,31.97
2023-03-20T04:21:24.819Z,32.53
2023-03-20T04:23:51.924Z,31.23
2023-03-20T04:26:19.122Z,34.50
2023-03-20T04:28:45.928Z,29.50
2023-03-20T04:31:12.685Z,31.67
2023-03-20T04:33:39.776Z,29.60
2023-03-20T04:36:07.290Z,29.97
2023-03-20T04:38:34.013Z,30.87
2023-03-20T04:41:01.281Z,32.00
2023-03-20T04:43:27.953Z,31.43
2023-03-20T04:45:54.750Z,29.33
2023-03-20T04:48:21.568Z,29.40
2023-03-20T04:50:48.468Z,30.07
2023-03-20T04:53:15.830Z,30.50
2023-03-20T04:55:42.985Z,27.90
2023-03-20T04:58:09.932Z,30.07
2023-03-20T05:00:36.658Z,27.87
2023-03-20T05:03:03.601Z,29.03
2023-03-20T05:05:30.763Z,28.10
2023-03-20T05:07:57.885Z,26.63
2023-03-20T05:10:24.630Z,27.10
2023-03-20T05:12:51.572Z,27.53
2023-03-20T05:15:18.443Z,27.30
2023-03-20T05:17:45.121Z,25.87
2023-03-20T05:20:11.955Z,26.20
2023-03-20T05:22:38.611Z,24.63
2023-03-20T05:25:06.071Z,25.50
2023-03-20T05:27:32.775Z,25.67
2023-03-20T05:30:00.316Z,25.23
2023-03-20T05:32:27.090Z,23.83
2023-03-20T05:34:53.842Z,23.90
2023-03-20T05:37:20.599Z,23.93
2023-03-20T05:39:47.739Z,23.93
2023-03-20T05:42:14.411Z,22.70
2023-03-20T05:44:41.212Z,24.47
2023-03-20T05:47:08.159Z,23.10
2023-03-20T05:49:34.938Z,22.13
2023-03-20T05:52:01.757Z,22.13
2023-03-20T05:54:28.494Z,22.73
2023-03-20T05:56:57.843Z,21.43
2023-03-20T05:59:25.649Z,22.80
2023-03-20T06:01:52.363Z,23.03
2023-03-20T06:04:19.033Z,21.07
2023-03-20T06:06:45.912Z,23.33
2023-03-20T06:09:12.695Z,22.57
2023-03-20T06:11:39.374Z,21.70
2023-03-20T06:14:06.172Z,21.83
2023-03-20T06:16:32.903Z,20.77
2023-03-20T06:18:59.625Z,20.00
2023-03-20T06:21:26.372Z,19.03
2023-03-20T06:23:54.685Z,19.60
2023-03-20T06:26:21.595Z,20.63
2023-03-20T06:28:48.383Z,19.80
2023-03-20T06:31:15.321Z,21.07
2023-03-20T06:33:42.087Z,20.07
2023-03-20T06:36:09.073Z,21.47
2023-03-20T06:38:35.759Z,20.77
2023-03-20T06:41:02.448Z,20.20
2023-03-20T06:43:29.635Z,19.90
2023-03-20T06:45:56.491Z,20.80
2023-03-20T06:48:23.414Z,19.70
2023-03-20T06:50:51.514Z,18.47
2023-03-20T06:53:18.352Z,18.87
2023-03-20T06:55:51.946Z,19.00
2023-03-20T06:58:19.007Z,20.90
2023-03-20T07:00:46.616Z,20.20
2023-03-20T07:03:13.492Z,19.13
2023-03-20T07:05:41.323Z,20.20
2023-03-20T07:08:08.112Z,19.43
2023-03-20T07:10:35.387Z,19.83
2023-03-20T07:13:02.121Z,19.17
2023-03-20T07:15:30.118Z,20.37
2023-03-20T07:17:57.247Z,19.70
2023-03-20T07:20:24.001Z,18.87
2023-03-20T07:22:50.792Z,18.90
2023-03-20T07:25:20.568Z,20.03
2023-03-20T07:27:52.934Z,20.07
2023-03-20T07:30:19.806Z,19.47
2023-03-20T07:32:46.668Z,19.63
2023-03-20T07:35:13.567Z,19.53
2023-03-20T07:37:41.080Z,19.13
2023-03-20T07:40:08.866Z,18.10
2023-03-20T07:42:35.949Z,18.83
2023-03-20T07:45:02.803Z,18.27
2023-03-20T07:47:29.585Z,18.90
2023-03-20T07:49:56.409Z,17.90
2023-03-20T07:52:23.297Z,18.77
2023-03-20T07:54:50.119Z,17.60
2023-03-20T07:57:16.987Z,18.00
2023-03-20T07:59:43.897Z,17.50
2023-03-20T08:02:19.609Z,18.40
2023-03-20T08:04:46.639Z,17.47
2023-03-20T08:07:13.612Z,18.10
2023-03-20T08:09:40.924Z,19.33
2023-03-20T08:12:07.918Z,18.77
2023-03-20T08:14:35.204Z,17.67
2023-03-20T08:17:13.825Z,18.80
2023-03-20T08:19:41.435Z,15.90
2023-03-20T08:22:08.165Z,15.50
2023-03-20T08:24:34.970Z,12.90
2023-03-20T08:27:01.736Z,13.63
2023-03-20T08:29:28.621Z,11.60
2023-03-20T08:31:56.111Z,12.27
2023-03-20T08:34:24.141Z,11.23
2023-03-20T08:36:52.413Z,11.37
2023-03-20T08:39:19.257Z,9.87
2023-03-20T08:41:46.072Z,10.43
2023-03-20T08:44:13.666Z,10.47
2023-03-20T08:46:40.514Z,10.10
2023-03-20T08:49:07.307Z,9.73
2023-03-20T08:51:34.196Z,8.47
2023-03-20T08:54:01.177Z,9.43
2023-03-20T08:56:28.010Z,7.97
2023-03-20T08:58:56.125Z,8.40
2023-03-20T09:01:23.187Z,7.57
2023-03-20T09:03:50.458Z,7.83
2023-03-20T09:06:17.223Z,8.43
2023-03-20T09:08:43.976Z,8.60
2023-03-20T09:11:10.823Z,7.10
2023-03-20T09:13:37.562Z,7.33
2023-03-20T09:16:04.748Z,7.60
2023-03-20T09:18:31.552Z,7.70
2023-03-20T09:20:58.322Z,8.17
2023-03-20T09:23:25.210Z,7.87
2023-03-20T09:25:52.045Z,8.33
2023-03-20T09:28:19.001Z,8.70
2023-03-20T09:30:45.934Z,8.13
2023-03-20T09:33:14.816Z,7.03
2023-03-20T09:35:43.628Z,7.53
2023-03-20T09:38:12.180Z,8.50
2023-03-20T09:40:56.918Z,7.43
2023-03-20T09:43:35.761Z,8.07
2023-03-20T09:46:49.457Z,8.10
2023-03-20T09:49:35.061Z,9.03
2023-03-20T09:52:26.383Z,9.00
2023-03-20T09:54:59.612Z,8.97
2023-03-20T09:57:38.940Z,9.27
2023-03-20T10:00:19.544Z,8.30
2023-03-20T10:03:03.225Z,9.23
2023-03-20T10:05:43.097Z,9.87
2023-03-20T10:08:17.960Z,9.50
2023-03-20T10:10:56.678Z,9.40
2023-03-20T10:13:32.274Z,9.93
2023-03-20T10:16:24.336Z,9.53
2023-03-20T10:19:34.060Z,9.40
2023-03-20T10:22:26.822Z,8.87
2023-03-20T10:25:13.128Z,8.40
2023-03-20T10:27:47.288Z,9.00
2023-03-20T10:30:29.074Z,9.00
2023-03-20T10:33:17.694Z,9.60
2023-03-20T10:35:52.138Z,9.00
2023-03-20T10:38:36.964Z,10.50
2023-03-20T10:41:09.524Z,9.50
2023-03-20T10:43:41.625Z,7.70
2023-03-20T10:46:19.871Z,8.17
2023-03-20T10:48:58.909Z,8.40
2023-03-20T10:51:52.110Z,8.53
2023-03-20T10:54:24.466Z,7.23
2023-03-20T10:56:55.990Z,6.27
2023-03-20T10:59:28.743Z,7.30
2023-03-20T11:01:55.719Z,6.47
2023-03-20T11:04:22.754Z,7.90
2023-03-20T11:07:31.187Z,7.00
2023-03-20T11:10:10.837Z,7.07
2023-03-20T11:12:41.159Z,7.47
2023-03-20T11:15:24.805Z,6.90
2023-03-20T11:18:03.794Z,7.20
2023-03-20T11:20:37.636Z,8.03
2023-03-20T11:23:08.567Z,6.10
2023-03-20T11:25:46.746Z,7.70
2023-03-20T11:28:27.008Z,7.83
2023-03-20T11:31:19.763Z,7.93
2023-03-20T11:33:52.060Z,6.50
2023-03-20T11:36:28.256Z,6.70
2023-03-20T11:39:06.008Z,6.83
2023-03-20T11:41:33.499Z,5.20
2023-03-20T11:44:00.402Z,5.13
2023-03-20T11:46:29.546Z,6.13
2023-03-20T11:49:17.253Z,5.57
2023-03-20T11:51:44.188Z,5.47
2023-03-20T11:54:19.537Z,5.50
2023-03-20T11:56:59.848Z,5.30
2023-03-20T11:59:35.885Z,5.00
2023-03-20T12:02:05.279Z,4.93
2023-03-20T12:04:47.425Z,4.47
2023-03-20T12:07:19.526Z,4.80
2023-03-20T12:09:53.721Z,4.33
2023-03-20T12:12:29.425Z,4.23
2023-03-20T12:14:58.916Z,3.70
2023-03-20T12:18:00.638Z,4.00
2023-03-20T12:20:36.718Z,4.50
2023-03-20T12:23:09.440Z,4.00
2023-03-20T12:25:48.660Z,4.30
2023-03-20T12:28:34.788Z,4.20
2023-03-20T12:31:09.468Z,4.17
2023-03-20T12:34:14.046Z,4.30
2023-03-20T12:36:49.375Z,5.03
2023-03-20T12:39:24.137Z,4.90
2023-03-20T12:42:19.001Z,4.07
2023-03-20T12:45:14.633Z,3.50
2023-03-20T12:48:02.974Z,4.10
2023-03-20T12:50:39.629Z,3.50
2023-03-20T12:53:36.592Z,3.73
2023-03-20T12:56:06.512Z,4.07
2023-03-20T12:58:50.691Z,4.30
2023-03-20T13:01:45.424Z,3.70
2023-03-20T13:04:44.418Z,4.10
2023-03-20T13:07:17.997Z,4.10
2023-03-20T13:09:48.049Z,4.20
2023-03-20T13:12:29.852Z,4.37
2023-03-20T13:15:25.936Z,4.70
2023-03-20T13:17:58.155Z,4.40
2023-03-20T13:20:37.401Z,4.33
2023-03-20T13:23:41.624Z,4.40
2023-03-20T13:26:55.812Z,4.27
2023-03-20T13:29:33.950Z,4.40
2023-03-20T13:32:24.688Z,4.70
2023-03-20T13:35:12.616Z,4.60
2023-03-20T13:37:44.298Z,4.63
2023-03-20T13:40:39.894Z,5.20
2023-03-20T13:43:24.518Z,4.73
2023-03-20T13:46:23.050Z,4.30
2023-03-20T13:48:52.809Z,4.60
2023-03-20T13:52:04.590Z,4.07
2023-03-20T13:54:52.486Z,5.00
2023-03-20T13:57:22.172Z,5.23
2023-03-20T14:00:18.344Z,5.40
2023-03-20T14:03:19.895Z,4.80
2023-03-20T14:05:47.508Z,4.87
2023-03-20T14:08:32.518Z,4.70
2023-03-20T14:11:21.226Z,5.10
2023-03-20T14:13:55.377Z,5.90
2023-03-20T14:16:28.462Z,6.30
2023-03-20T14:19:16.749Z,6.43
2023-03-20T14:21:48.980Z,5.60
2023-03-20T14:24:18.591Z,6.70
2023-03-20T14:26:54.648Z,6.60
2023-03-20T14:29:31.956Z,6.70
2023-03-20T14:32:13.419Z,6.53
2023-03-20T14:34:49.225Z,6.53
2023-03-20T14:37:56.766Z,7.37
2023-03-20T14:40:28.293Z,6.57
2023-03-20T14:43:01.005Z,7.40
2023-03-20T14:45:41.202Z,6.87
2023-03-20T14:48:26.182Z,7.10
2023-03-20T14:51:25.160Z,7.00
2023-03-20T14:54:30.952Z,7.20
2023-03-20T14:57:18.677Z,7.40
2023-03-20T14:59:49.483Z,7.60
2023-03-20T15:02:28.810Z,7.57
2023-03-20T15:04:56.081Z,7.80
2023-03-20T15:07:26.823Z,7.70
2023-03-20T15:09:59.461Z,10.17
2023-03-20T15:12:37.255Z,9.17
2023-03-20T15:15:07.051Z,10.20
2023-03-20T15:17:39.597Z,10.43
2023-03-20T15:20:26.125Z,12.17
2023-03-20T15:22:58.548Z,11.50
2023-03-20T15:25:38.739Z,12.30
2023-03-20T15:28:07.098Z,12.13
2023-03-20T15:30:38.027Z,14.23
2023-03-20T15:33:06.121Z,13.50
2023-03-20T15:35:33.571Z,13.70
2023-03-20T15:38:06.993Z,13.43
2023-03-20T15:40:50.166Z,12.77
2023-03-20T15:43:24.232Z,12.90
2023-03-20T15:46:02.937Z,12.00
2023-03-20T15:48:33.343Z,11.80
2023-03-20T15:51:05.036Z,10.50
2023-03-20T15:53:39.758Z,9.87
2023-03-20T15:56:20.528Z,8.93
2023-03-20T15:58:52.251Z,8.77
2023-03-20T16:01:24.811Z,8.80
2023-03-20T16:03:53.540Z,8.07
2023-03-20T16:06:22.277Z,8.47
2023-03-20T16:09:05.865Z,7.70
2023-03-20T16:11:38.314Z,8.30
2023-03-20T16:14:07.122Z,8.90
2023-03-20T16:16:37.425Z,8.67
2023-03-20T16:19:06.976Z,9.10
2023-03-20T16:21:38.288Z,9.50
2023-03-20T16:24:25.665Z,8.83
2023-03-20T16:26:53.462Z,9.23
2023-03-20T16:29:22.902Z,10.00
2023-03-20T16:31:58.220Z,9.97
2023-03-20T16:34:31.744Z,9.77
2023-03-20T16:37:00.450Z,9.67
2023-03-20T16:39:31.747Z,9.70
2023-03-20T16:42:17.214Z,10.00
2023-03-20T16:44:44.496Z,9.90
2023-03-20T16:47:21.674Z,8.87
2023-03-20T16:50:29.887Z,8.97
2023-03-20T16:52:58.433Z,9.10
2023-03-20T16:55:32.017Z,8.40
2023-03-20T16:58:03.344Z,7.27
2023-03-20T17:00:45.887Z,7.40
2023-03-20T17:03:18.583Z,7.30
2023-03-20T17:06:21.379Z,7.50
2023-03-20T17:09:03.203Z,7.43
2023-03-20T17:11:32.940Z,7.43
2023-03-20T17:14:00.121Z,7.77
2023-03-20T17:16:27.137Z,8.20
2023-03-20T17:19:05.610Z,8.40
2023-03-20T17:21:32.347Z,6.87
2023-03-20T17:23:59.298Z,7.70
2023-03-20T17:26:26.117Z,7.90
2023-03-20T17:28:52.911Z,7.80
2023-03-20T17:31:19.810Z,7.40
2023-03-20T17:33:46.943Z,7.77
2023-03-20T17:36:22.475Z,7.60
2023-03-20T17:38:49.249Z,7.77
2023-03-20T17:41:18.058Z,9.60
2023-03-20T17:43:45.485Z,8.30
2023-03-20T17:46:21.827Z,8.30
2023-03-20T17:48:50.407Z,8.87
2023-03-20T17:51:17.179Z,8.83
2023-03-20T17:53:44.132Z,8.20
2023-03-20T17:56:16.724Z,8.20
2023-03-20T17:58:46.282Z,9.23
2023-03-20T18:01:14.411Z,8.90
2023-03-20T18:03:41.587Z,8.27
2023-03-20T18:06:16.036Z,9.90
2023-03-20T18:08:43.153Z,9.53
2023-03-20T18:11:09.976Z,8.60
2023-03-20T18:13:36.877Z,9.03
2023-03-20T18:16:03.819Z,9.27
2023-03-20T18:18:31.147Z,8.83
2023-03-20T18:20:59.332Z,10.43
2023-03-20T18:23:25.990Z,9.63
2023-03-20T18:25:52.708Z,10.33
2023-03-20T18:28:22.757Z,11.10
2023-03-20T18:30:50.725Z,11.07
2023-03-20T18:33:17.922Z,10.50
2023-03-20T18:35:45.089Z,11.03
2023-03-20T18:38:15.794Z,11.27
2023-03-20T18:40:47.322Z,11.80
2023-03-20T18:43:14.082Z,11.00
2023-03-20T18:45:41.180Z,13.30
2023-03-20T18:48:11.917Z,11.93
2023-03-20T18:50:43.721Z,12.17
2023-03-20T18:53:11.149Z,12.00
2023-03-20T18:55:38.491Z,12.47
2023-03-20T18:58:06.335Z,13.17
2023-03-20T19:00:40.108Z,13.60
2023-03-20T19:03:08.039Z,13.77
2023-03-20T19:05:35.003Z,13.60
2023-03-20T19:08:04.913Z,14.67
2023-03-20T19:10:40.375Z,14.27
2023-03-20T19:13:07.734Z,14.53
2023-03-20T19:15:37.253Z,14.63
2023-03-20T19:18:06.143Z,14.97
2023-03-20T19:20:37.877Z,15.97
2023-03-20T19:23:07.121Z,15.33
2023-03-20T19:25:34.678Z,15.33
2023-03-20T19:28:01.502Z,15.37
2023-03-20T19:30:31.363Z,16.37
2023-03-20T19:32:58.623Z,17.80
2023-03-20T19:36:01.396Z,17.10
2023-03-20T19:38:18.436Z,18.70
2023-03-20T19:40:52.862Z,19.30
2023-03-20T19:43:23.290Z,18.90
2023-03-20T19:45:55.999Z,20.20
2023-03-20T19:48:47.090Z,19.33
2023-03-20T19:51:18.650Z,20.83
2023-03-20T19:53:46.298Z,21.83
2023-03-20T19:56:14.759Z,22.50
2023-03-20T19:58:42.093Z,20.80
2023-03-20T20:01:18.635Z,22.80
2023-03-20T20:03:46.173Z,21.97
2023-03-20T20:06:13.278Z,21.20
2023-03-20T20:08:48.767Z,21.97
2023-03-20T20:11:20.462Z,22.37
2023-03-20T20:14:04.737Z,21.53
2023-03-20T20:16:39.472Z,22.50
2023-03-20T20:19:06.734Z,21.77
2023-03-20T20:24:20.649Z,23.87
2023-03-20T20:26:54.868Z,20.80
2023-03-20T20:29:26.798Z,22.47
2023-03-20T20:31:53.972Z,25.13
2023-03-20T20:39:55.527Z,22.97
2023-03-20T20:42:22.883Z,23.73
2023-03-20T20:44:50.313Z,24.47
2023-03-20T20:47:17.610Z,24.37
2023-03-20T20:49:47.341Z,24.30
2023-03-20T20:52:15.647Z,24.70
2023-03-20T20:54:42.808Z,24.27
2023-03-20T20:57:11.800Z,24.27
2023-03-20T20:59:40.204Z,24.70
2023-03-20T21:02:12.047Z,23.43
2023-03-20T21:04:41.175Z,23.07
2023-03-20T21:07:11.816Z,23.50
2023-03-20T21:09:39.331Z,23.50
2023-03-20T21:12:07.618Z,29.83
2023-03-20T21:14:34.888Z,22.73
2023-03-20T21:17:01.911Z,20.77
2023-03-20T21:19:30.447Z,22.40
2023-03-20T21:21:57.415Z,21.07
2023-03-20T21:24:33.975Z,20.33
2023-03-20T21:27:08.106Z,20.83
2023-03-20T21:29:35.655Z,20.20
2023-03-20T21:32:02.789Z,20.70
2023-03-20T21:34:29.763Z,20.73
2023-03-20T21:36:57.801Z,20.77
2023-03-20T21:39:27.588Z,19.63
2023-03-20T21:41:54.348Z,19.07
2023-03-20T21:44:56.097Z,19.47
2023-03-20T21:56:23.676Z,19.43
2023-03-20T22:12:54.166Z,21.77
2023-03-20T22:15:33.987Z,20.80
2023-03-20T22:32:27.939Z,19.47
2023-03-20T22:37:56.214Z,17.50
2023-03-20T22:43:00.097Z,16.50
2023-03-20T22:45:42.300Z,15.60
2023-03-20T22:48:13.919Z,17.53
2023-03-20T22:50:40.654Z,15.97
2023-03-20T22:53:07.418Z,16.57
2023-03-20T22:55:34.370Z,15.30
2023-03-20T22:58:07.433Z,15.80
2023-03-20T23:00:36.032Z,15.97
2023-03-20T23:03:19.373Z,15.73
2023-03-20T23:05:53.708Z,16.20
2023-03-20T23:08:21.110Z,15.70
2023-03-20T23:10:49.843Z,14.37
2023-03-20T23:13:18.265Z,14.63
2023-03-20T23:15:46.730Z,15.00
2023-03-20T23:18:14.119Z,14.93
2023-03-20T23:20:41.385Z,13.87
2023-03-20T23:23:08.666Z,13.80
2023-03-20T23:25:39.739Z,14.10
2023-03-20T23:28:08.921Z,14.50
2023-03-20T23:31:07.514Z,13.47
2023-03-20T23:33:23.218Z,16.40
2023-03-20T23:36:01.177Z,14.40
2023-03-20T23:38:32.385Z,13.70
2023-03-20T23:40:59.187Z,12.80
2023-03-20T23:43:25.982Z,13.27
2023-03-20T23:45:52.790Z,12.80
2023-03-20T23:48:20.462Z,13.07
2023-03-20T23:50:52.842Z,13.50
2023-03-20T23:53:21.304Z,13.63
2023-03-20T23:55:50.683Z,13.30
2023-03-20T23:58:18.077Z,12.43
